Time;durP1;ratioP1;P1;durP2;ratioP2;P2;SDS_P1;SDS_P2;PMS_P1;PMS_P2;Temp;Humidity;BMP_temperature;BMP_pressure;BME280_temperature;BME280_humidity;BME280_pressure;Samples;Min_cycle;Max_cycle;Signal;HPM_P1;HPM_P2
2022/01/01 00:03:21;;;;;;;0.20;0.10;;;9.30;99.90;;;;;;20843431;28;20281;-79
2022/01/01 00:13:25;;;;;;;0.20;0.00;;;9.40;99.90;;;;;;20825308;28;20347;-78
2022/01/01 00:23:30;;;;;;;0.20;0.00;;;9.40;99.90;;;;;;20814985;28;20203;-82
2022/01/01 00:33:34;;;;;;;0.20;0.00;;;9.00;99.90;;;;;;20863181;28;20315;-80
2022/01/01 00:43:40;;;;;;;0.20;0.00;;;8.90;99.90;;;;;;20888893;28;20272;-82
2022/01/01 00:53:43;;;;;;;0.20;0.00;;;8.80;99.90;;;;;;20893256;28;20694;-80
2022/01/01 01:03:48;;;;;;;0.20;0.00;;;8.80;99.90;;;;;;20896428;28;20288;-81
2022/01/01 01:13:57;;;;;;;0.20;0.00;;;8.80;99.90;;;;;;20912358;28;20320;-81
2022/01/01 01:24:05;;;;;;;0.73;0.73;;;8.20;99.90;;;;;;20908071;28;20197;-82
2022/01/01 01:34:09;;;;;;;0.20;0.00;;;8.30;99.90;;;;;;20892431;28;20317;-82
2022/01/01 01:44:26;;;;;;;0.20;0.10;;;8.00;99.90;;;;;;20910108;28;20197;-82
2022/01/01 01:54:31;;;;;;;0.20;0.00;;;8.30;99.90;;;;;;20908873;28;20221;-82
2022/01/01 02:04:36;;;;;;;0.20;0.00;;;8.10;99.90;;;;;;22501265;22;20226;-82
2022/01/01 02:15:08;;;;;;;0.67;0.57;;;7.70;99.90;;;;;;20888536;28;20217;-82
2022/01/01 02:25:14;;;;;;;0.20;0.00;;;7.70;99.90;;;;;;20888741;28;20627;-82
2022/01/01 02:35:19;;;;;;;0.20;0.03;;;7.70;99.90;;;;;;20905690;28;20358;-83
2022/01/01 02:45:24;;;;;;;0.20;0.00;;;7.80;99.90;;;;;;20905455;28;20204;-81
2022/01/01 02:55:28;;;;;;;0.20;0.00;;;7.50;99.90;;;;;;20895280;28;20225;-80
2022/01/01 03:05:33;;;;;;;0.20;0.00;;;7.30;99.90;;;;;;20908072;28;20229;-80
2022/01/01 03:15:37;;;;;;;0.20;0.00;;;7.40;99.90;;;;;;20902790;28;20231;-80
2022/01/01 03:25:42;;;;;;;0.20;0.00;;;7.10;99.90;;;;;;20902138;28;20190;-77
2022/01/01 03:35:47;;;;;;;0.20;0.00;;;7.20;99.90;;;;;;20900566;28;20694;-78
2022/01/01 03:45:53;;;;;;;0.20;0.10;;;7.20;99.90;;;;;;20900344;28;20736;-78
2022/01/01 03:55:58;;;;;;;0.20;0.00;;;7.30;99.90;;;;;;20899990;28;20221;-79
2022/01/01 04:06:03;;;;;;;0.20;0.00;;;7.50;99.90;;;;;;20900094;28;20228;-78
2022/01/01 04:16:07;;;;;;;0.20;0.00;;;7.30;99.90;;;;;;20906552;28;20232;-78
2022/01/01 04:26:12;;;;;;;0.20;0.00;;;7.30;99.90;;;;;;20898762;28;20621;-77
2022/01/01 04:36:16;;;;;;;0.20;0.00;;;7.00;99.90;;;;;;20914221;28;20253;-77
2022/01/01 04:46:21;;;;;;;0.20;0.00;;;6.80;99.90;;;;;;20896394;28;20197;-77
2022/01/01 04:56:25;;;;;;;0.20;0.00;;;6.80;99.90;;;;;;20894293;28;20217;-78
2022/01/01 05:06:30;;;;;;;0.20;0.00;;;7.00;99.90;;;;;;20911984;28;20244;-81
2022/01/01 05:16:34;;;;;;;0.20;0.00;;;6.90;99.90;;;;;;20912041;28;20316;-80
2022/01/01 05:26:39;;;;;;;0.20;0.00;;;6.60;99.90;;;;;;20909691;28;20205;-80
2022/01/01 05:36:42;;;;;;;0.20;0.00;;;6.60;99.90;;;;;;20910546;28;20320;-81
2022/01/01 05:46:49;;;;;;;0.20;0.00;;;6.60;99.90;;;;;;20891328;28;20288;-80
2022/01/01 05:56:53;;;;;;;0.20;0.10;;;6.60;99.90;;;;;;20908444;28;20252;-79
2022/01/01 06:06:58;;;;;;;0.20;0.00;;;6.20;99.90;;;;;;20907346;28;20725;-79
2022/01/01 06:17:01;;;;;;;0.20;0.00;;;6.30;99.90;;;;;;20904626;28;20209;-79
2022/01/01 06:27:07;;;;;;;0.20;0.10;;;6.30;99.90;;;;;;20904521;28;20185;-79
2022/01/01 06:37:10;;;;;;;0.20;0.00;;;6.00;99.90;;;;;;20887549;28;20307;-80
2022/01/01 06:47:15;;;;;;;0.20;0.00;;;6.50;99.90;;;;;;20900740;28;20229;-81
2022/01/01 06:57:19;;;;;;;0.20;0.10;;;6.40;99.90;;;;;;20899891;28;20221;-82
2022/01/01 07:07:23;;;;;;;0.20;0.00;;;6.40;99.90;;;;;;20897752;28;20305;-80
2022/01/01 07:17:27;;;;;;;0.20;0.00;;;6.10;99.90;;;;;;20899185;28;20217;-80
2022/01/01 07:27:32;;;;;;;0.20;0.00;;;6.20;99.90;;;;;;20898662;28;20363;-81
2022/01/01 07:37:36;;;;;;;0.20;0.00;;;6.20;99.90;;;;;;20863591;28;20249;-80
2022/01/01 07:47:41;;;;;;;0.20;0.00;;;6.30;99.90;;;;;;20880319;28;20650;-80
2022/01/01 07:57:45;;;;;;;0.20;0.00;;;6.40;99.90;;;;;;20897648;28;20331;-80
2022/01/01 08:07:50;;;;;;;0.20;0.00;;;6.60;99.90;;;;;;20897616;28;20209;-82
2022/01/01 08:18:06;;;;;;;0.20;0.00;;;6.90;99.90;;;;;;20897604;28;20217;-81
2022/01/01 08:28:15;;;;;;;0.20;0.00;;;7.50;99.90;;;;;;20899018;28;20197;-81
2022/01/01 08:38:19;;;;;;;0.20;0.00;;;8.10;99.90;;;;;;20901472;28;20320;-82
2022/01/01 08:48:23;;;;;;;0.20;0.00;;;8.70;99.90;;;;;;20902122;28;20197;-83
2022/01/01 08:58:27;;;;;;;0.20;0.00;;;9.20;99.90;;;;;;20886626;28;20245;-82
2022/01/01 09:08:33;;;;;;;0.20;0.10;;;9.70;99.90;;;;;;20913535;28;20403;-82
2022/01/01 09:18:36;;;;;;;0.20;0.00;;;10.10;99.90;;;;;;20894453;28;20231;-82
2022/01/01 09:28:41;;;;;;;0.20;0.10;;;10.70;99.90;;;;;;20912245;28;20647;-81
2022/01/01 09:38:46;;;;;;;0.20;0.10;;;11.20;99.90;;;;;;20880857;28;20244;-82
2022/01/01 09:48:51;;;;;;;0.20;0.10;;;11.60;99.90;;;;;;20884495;28;20593;-80
2022/01/01 09:58:55;;;;;;;0.20;0.10;;;11.90;99.90;;;;;;20908345;28;20218;-80
2022/01/01 10:09:03;;;;;;;0.20;0.10;;;12.20;99.90;;;;;;20911784;28;20312;-81
2022/01/01 10:19:06;;;;;;;0.20;0.10;;;12.50;99.90;;;;;;20913595;28;20319;-81
2022/01/01 10:29:14;;;;;;;0.20;0.10;;;12.90;99.90;;;;;;20891611;28;20300;-80
2022/01/01 10:39:21;;;;;;;0.20;0.00;;;13.70;99.90;;;;;;20911403;28;20245;-80
2022/01/01 10:49:49;;;;;;;0.20;0.10;;;14.40;99.90;;;;;;20927279;28;20197;-81
2022/01/01 11:00:03;;;;;;;0.20;0.10;;;14.90;99.90;;;;;;20902408;28;20796;-81
2022/01/01 11:10:10;;;;;;;0.20;0.00;;;15.80;99.90;;;;;;20923356;28;20663;-75
2022/01/01 11:20:19;;;;;;;0.20;0.20;;;16.30;99.90;;;;;;20906026;28;20319;-79
2022/01/01 11:30:28;;;;;;;0.20;0.00;;;16.30;99.90;;;;;;20885894;28;20284;-82
2022/01/01 11:40:42;;;;;;;0.20;0.10;;;16.90;99.90;;;;;;20901156;28;20241;-79
2022/01/01 11:50:47;;;;;;;0.20;0.10;;;17.00;99.90;;;;;;20903459;28;20284;-81
2022/01/01 12:00:57;;;;;;;0.20;0.10;;;17.50;99.90;;;;;;20900753;28;20217;-73
2022/01/01 12:11:02;;;;;;;0.20;0.00;;;18.60;99.90;;;;;;20908053;28;20247;-83
2022/01/01 12:21:07;;;;;;;0.33;0.20;;;19.30;99.90;;;;;;20902387;28;20334;-80
2022/01/01 12:31:13;;;;;;;0.47;0.47;;;19.60;99.90;;;;;;20902859;28;20198;-80
2022/01/01 12:41:32;;;;;;;3.13;1.33;;;19.20;99.90;;;;;;20922315;28;20584;-82
2022/01/01 12:51:38;;;;;;;0.20;0.10;;;19.50;99.90;;;;;;20940365;28;20216;-78
2022/01/01 13:01:44;;;;;;;0.20;0.10;;;19.80;99.90;;;;;;20903895;28;20242;-79
2022/01/01 13:11:56;;;;;;;0.20;0.00;;;20.00;99.90;;;;;;20918583;28;20279;-82
2022/01/01 13:22:01;;;;;;;0.20;0.00;;;20.10;99.90;;;;;;20900497;28;20248;-77
2022/01/01 13:32:07;;;;;;;0.20;0.10;;;20.40;99.90;;;;;;20922599;28;20212;-79
2022/01/01 13:42:17;;;;;;;0.20;0.00;;;19.70;99.90;;;;;;20928389;28;20249;-79
2022/01/01 13:52:24;;;;;;;0.20;0.10;;;19.40;99.90;;;;;;20920677;28;20200;-79
2022/01/01 14:02:29;;;;;;;0.20;0.07;;;19.40;99.90;;;;;;20933707;28;20299;-78
2022/01/01 14:12:37;;;;;;;0.27;0.20;;;20.20;99.90;;;;;;20903877;28;20234;-78
2022/01/01 14:22:42;;;;;;;0.20;0.10;;;20.70;99.90;;;;;;20913224;28;20228;-76
2022/01/01 14:32:47;;;;;;;0.20;0.00;;;21.10;99.90;;;;;;20910364;28;20189;-75
2022/01/01 14:42:53;;;;;;;0.20;0.10;;;21.60;99.90;;;;;;20907412;28;20239;-77
2022/01/01 14:53:02;;;;;;;0.20;0.00;;;20.90;99.90;;;;;;20908435;28;20360;-73
2022/01/01 15:03:06;;;;;;;0.20;0.00;;;18.90;99.90;;;;;;20887606;28;20581;-78
2022/01/01 15:13:13;;;;;;;0.43;0.27;;;18.60;99.90;;;;;;20905311;28;20190;-78
2022/01/01 15:23:25;;;;;;;0.20;0.00;;;19.30;99.90;;;;;;20899939;28;20217;-76
2022/01/01 15:33:33;;;;;;;0.20;0.07;;;19.70;99.90;;;;;;20879311;28;20204;-75
2022/01/01 15:43:49;;;;;;;0.20;0.10;;;19.50;99.90;;;;;;20891585;28;20220;-76
2022/01/01 15:53:54;;;;;;;0.20;0.10;;;19.00;99.90;;;;;;20896061;28;21037;-76
2022/01/01 16:04:09;;;;;;;0.20;0.00;;;18.20;99.90;;;;;;20895755;28;20243;-76
2022/01/01 16:14:16;;;;;;;0.20;0.00;;;16.40;99.90;;;;;;20905976;28;20205;-77
2022/01/01 16:24:21;;;;;;;0.20;0.10;;;15.30;99.90;;;;;;20912503;28;20235;-78
2022/01/01 16:34:26;;;;;;;0.20;0.10;;;15.00;99.90;;;;;;20910549;28;20198;-76
2022/01/01 16:44:38;;;;;;;0.20;0.00;;;14.50;99.90;;;;;;20910746;28;20308;-80
2022/01/01 16:54:46;;;;;;;0.20;0.10;;;14.10;99.90;;;;;;20908674;28;20177;-80
2022/01/01 17:04:54;;;;;;;0.20;0.00;;;13.70;99.90;;;;;;20908260;28;20316;-80
2022/01/01 17:15:02;;;;;;;0.20;0.13;;;13.10;99.90;;;;;;20849948;28;20653;-81
2022/01/01 17:25:09;;;;;;;0.20;0.00;;;12.30;99.90;;;;;;20869013;28;20228;-82
2022/01/01 17:35:22;;;;;;;0.20;0.10;;;11.80;99.90;;;;;;20913973;28;20236;-81
2022/01/01 17:45:29;;;;;;;0.20;0.10;;;11.30;99.90;;;;;;20904396;28;20237;-83
2022/01/01 17:55:35;;;;;;;0.20;0.10;;;11.20;99.90;;;;;;20907933;28;20193;-83
2022/01/01 18:05:41;;;;;;;0.20;0.00;;;11.10;99.90;;;;;;20906689;28;20578;-82
2022/01/01 18:15:47;;;;;;;0.37;0.37;;;11.00;99.90;;;;;;20905218;28;20194;-83
2022/01/01 18:25:56;;;;;;;0.20;0.07;;;10.80;99.90;;;;;;20905309;28;20344;-84
2022/01/01 18:36:02;;;;;;;0.83;0.83;;;10.50;99.90;;;;;;20903380;28;20587;-83
2022/01/01 18:46:07;;;;;;;1.17;1.07;;;10.50;99.90;;;;;;20901575;28;20231;-84
2022/01/01 18:56:14;;;;;;;0.20;0.10;;;10.50;99.90;;;;;;20886366;28;20690;-83
2022/01/01 19:06:21;;;;;;;0.20;0.10;;;10.60;99.90;;;;;;20903388;28;20270;-83
2022/01/01 19:16:26;;;;;;;0.20;0.00;;;10.60;99.90;;;;;;20884696;28;20228;-84
2022/01/01 19:26:30;;;;;;;0.20;0.20;;;10.60;99.90;;;;;;20900105;28;20202;-82
2022/01/01 19:36:36;;;;;;;0.20;0.00;;;10.40;99.90;;;;;;20895415;28;20255;-81
2022/01/01 19:46:46;;;;;;;0.20;0.10;;;10.10;99.90;;;;;;20913173;28;20620;-76
2022/01/01 19:56:53;;;;;;;0.20;0.10;;;10.20;99.90;;;;;;20910835;28;20208;-82
2022/01/01 20:06:57;;;;;;;0.20;0.10;;;10.00;99.90;;;;;;20867745;28;20628;-82
2022/01/01 20:17:04;;;;;;;0.20;0.10;;;10.00;99.90;;;;;;20900005;28;20332;-82
2022/01/01 20:27:08;;;;;;;0.20;0.10;;;9.70;99.90;;;;;;20900830;28;20292;-82
2022/01/01 20:37:13;;;;;;;1.30;1.30;;;9.50;99.90;;;;;;20903604;28;20351;-83
2022/01/01 20:47:17;;;;;;;0.20;0.00;;;9.30;99.90;;;;;;20910501;28;20232;-81
2022/01/01 20:57:22;;;;;;;4.63;4.33;;;9.20;99.90;;;;;;20988105;28;20248;-83
2022/01/01 21:07:27;;;;;;;0.20;0.10;;;9.20;99.90;;;;;;20950127;28;20225;-81
2022/01/01 21:17:32;;;;;;;0.20;0.00;;;8.90;99.90;;;;;;20893938;28;20720;-82
2022/01/01 21:27:36;;;;;;;0.20;0.00;;;8.90;99.90;;;;;;20913092;28;20194;-83
2022/01/01 21:37:41;;;;;;;0.20;0.00;;;9.00;99.90;;;;;;20908982;28;20782;-82
2022/01/01 21:47:45;;;;;;;0.20;0.10;;;8.90;99.90;;;;;;20893275;28;20202;-83
2022/01/01 21:57:50;;;;;;;0.20;0.00;;;9.10;99.90;;;;;;20906792;28;20308;-83
2022/01/01 22:07:54;;;;;;;0.60;0.30;;;9.30;99.90;;;;;;20905226;28;20578;-82
2022/01/01 22:17:59;;;;;;;0.20;0.00;;;9.60;99.90;;;;;;20904715;28;20606;-84
2022/01/01 22:28:05;;;;;;;0.20;0.10;;;10.00;99.90;;;;;;20896174;28;20202;-83
2022/01/01 22:38:11;;;;;;;0.20;0.10;;;10.30;99.90;;;;;;20901619;28;20576;-83
2022/01/01 22:48:14;;;;;;;0.57;0.57;;;10.50;99.90;;;;;;20903165;28;20211;-82
2022/01/01 22:58:19;;;;;;;0.20;0.10;;;10.60;99.90;;;;;;20901984;28;20271;-84
2022/01/01 23:08:28;;;;;;;0.20;0.00;;;10.50;99.90;;;;;;20901992;28;20240;-82
2022/01/01 23:29:04;;;;;;;0.20;0.00;;;10.60;99.90;;;;;;20885987;28;20575;-82
2022/01/01 23:39:10;;;;;;;0.20;0.00;;;10.30;99.90;;;;;;20875727;28;20231;-83
2022/01/01 23:49:13;;;;;;;0.20;0.10;;;10.70;99.90;;;;;;20899319;28;20204;-84
2022/01/01 23:59:26;;;;;;;0.20;0.10;;;10.80;99.90;;;;;;20881558;28;20225;-84
